sensor_id;sensor_type;location;lat;lon;timestamp;P1;durP1;ratioP1;P2;durP2;ratioP2
13463;SDS011;6804;48.774;9.174;2022-11-20T00:01:44;12.47;;;8.90;;
13463;SDS011;6804;48.774;9.174;2022-11-20T00:04:13;16.67;;;12.27;;
13463;SDS011;6804;48.774;9.174;2022-11-20T00:06:41;9.33;;;6.80;;
13463;SDS011;6804;48.774;9.174;2022-11-20T00:09:13;6.83;;;5.40;;
13463;SDS011;6804;48.774;9.174;2022-11-20T00:11:40;4.47;;;3.83;;
13463;SDS011;6804;48.774;9.174;2022-11-20T00:14:08;5.90;;;3.87;;
13463;SDS011;6804;48.774;9.174;2022-11-20T00:16:36;4.63;;;3.30;;
13463;SDS011;6804;48.774;9.174;2022-11-20T00:19:04;3.83;;;3.40;;
13463;SDS011;6804;48.774;9.174;2022-11-20T00:21:35;3.70;;;3.00;;
13463;SDS011;6804;48.774;9.174;2022-11-20T00:24:07;2.87;;;2.67;;
13463;SDS011;6804;48.774;9.174;2022-11-20T00:26:35;5.73;;;3.47;;
13463;SDS011;6804;48.774;9.174;2022-11-20T00:29:05;3.50;;;3.20;;
13463;SDS011;6804;48.774;9.174;2022-11-20T00:31:35;3.40;;;2.70;;
13463;SDS011;6804;48.774;9.174;2022-11-20T00:34:03;3.80;;;3.40;;
13463;SDS011;6804;48.774;9.174;2022-11-20T00:36:31;7.07;;;3.70;;
13463;SDS011;6804;48.774;9.174;2022-11-20T00:39:02;3.13;;;2.70;;
13463;SDS011;6804;48.774;9.174;2022-11-20T00:41:31;3.17;;;2.80;;
13463;SDS011;6804;48.774;9.174;2022-11-20T00:44:01;2.77;;;2.40;;
13463;SDS011;6804;48.774;9.174;2022-11-20T00:46:37;3.90;;;3.27;;
13463;SDS011;6804;48.774;9.174;2022-11-20T00:49:05;3.47;;;3.17;;
13463;SDS011;6804;48.774;9.174;2022-11-20T00:51:32;5.23;;;2.83;;
13463;SDS011;6804;48.774;9.174;2022-11-20T00:54:01;4.30;;;3.30;;
13463;SDS011;6804;48.774;9.174;2022-11-20T00:56:29;2.83;;;2.53;;
13463;SDS011;6804;48.774;9.174;2022-11-20T00:58:58;8.70;;;3.60;;
13463;SDS011;6804;48.774;9.174;2022-11-20T01:01:26;6.17;;;3.60;;
13463;SDS011;6804;48.774;9.174;2022-11-20T01:03:57;3.80;;;2.63;;
13463;SDS011;6804;48.774;9.174;2022-11-20T01:06:26;3.60;;;3.03;;
13463;SDS011;6804;48.774;9.174;2022-11-20T01:08:54;3.40;;;2.47;;
13463;SDS011;6804;48.774;9.174;2022-11-20T01:11:25;4.20;;;3.10;;
13463;SDS011;6804;48.774;9.174;2022-11-20T01:13:58;3.00;;;2.70;;
13463;SDS011;6804;48.774;9.174;2022-11-20T01:16:27;4.43;;;2.60;;
13463;SDS011;6804;48.774;9.174;2022-11-20T01:18:56;2.97;;;2.27;;
13463;SDS011;6804;48.774;9.174;2022-11-20T01:21:25;2.50;;;2.03;;
13463;SDS011;6804;48.774;9.174;2022-11-20T01:23:56;2.40;;;2.20;;
13463;SDS011;6804;48.774;9.174;2022-11-20T01:26:27;4.33;;;3.13;;
13463;SDS011;6804;48.774;9.174;2022-11-20T01:28:55;4.53;;;3.30;;
13463;SDS011;6804;48.774;9.174;2022-11-20T01:31:25;3.40;;;2.37;;
13463;SDS011;6804;48.774;9.174;2022-11-20T01:33:54;3.13;;;2.40;;
13463;SDS011;6804;48.774;9.174;2022-11-20T01:36:28;4.40;;;2.87;;
13463;SDS011;6804;48.774;9.174;2022-11-20T01:38:57;3.63;;;2.20;;
13463;SDS011;6804;48.774;9.174;2022-11-20T01:41:30;3.07;;;2.60;;
13463;SDS011;6804;48.774;9.174;2022-11-20T01:44:17;2.77;;;1.87;;
13463;SDS011;6804;48.774;9.174;2022-11-20T01:46:49;2.07;;;1.80;;
13463;SDS011;6804;48.774;9.174;2022-11-20T01:49:23;2.37;;;1.93;;
13463;SDS011;6804;48.774;9.174;2022-11-20T01:51:58;2.77;;;2.13;;
13463;SDS011;6804;48.774;9.174;2022-11-20T01:54:30;3.07;;;2.20;;
13463;SDS011;6804;48.774;9.174;2022-11-20T01:57:04;4.03;;;2.67;;
13463;SDS011;6804;48.774;9.174;2022-11-20T01:59:38;4.80;;;2.80;;
13463;SDS011;6804;48.774;9.174;2022-11-20T02:02:10;2.90;;;2.40;;
13463;SDS011;6804;48.774;9.174;2022-11-20T02:04:37;1.93;;;1.73;;
13463;SDS011;6804;48.774;9.174;2022-11-20T02:07:10;2.87;;;2.43;;
13463;SDS011;6804;48.774;9.174;2022-11-20T02:09:39;2.40;;;2.20;;
13463;SDS011;6804;48.774;9.174;2022-11-20T02:12:08;2.90;;;2.33;;
13463;SDS011;6804;48.774;9.174;2022-11-20T02:14:59;3.00;;;2.33;;
13463;SDS011;6804;48.774;9.174;2022-11-20T02:17:27;3.77;;;2.30;;
13463;SDS011;6804;48.774;9.174;2022-11-20T02:19:58;3.77;;;2.23;;
13463;SDS011;6804;48.774;9.174;2022-11-20T02:22:28;3.03;;;2.13;;
13463;SDS011;6804;48.774;9.174;2022-11-20T02:25:06;2.10;;;1.90;;
13463;SDS011;6804;48.774;9.174;2022-11-20T02:30:14;3.20;;;2.33;;
13463;SDS011;6804;48.774;9.174;2022-11-20T02:32:41;3.40;;;2.07;;
13463;SDS011;6804;48.774;9.174;2022-11-20T02:38:07;4.60;;;2.90;;
13463;SDS011;6804;48.774;9.174;2022-11-20T02:40:42;2.57;;;1.93;;
13463;SDS011;6804;48.774;9.174;2022-11-20T02:43:09;2.20;;;2.00;;
13463;SDS011;6804;48.774;9.174;2022-11-20T02:45:40;2.30;;;2.07;;
13463;SDS011;6804;48.774;9.174;2022-11-20T02:48:08;2.60;;;2.07;;
13463;SDS011;6804;48.774;9.174;2022-11-20T02:50:38;2.40;;;2.00;;
13463;SDS011;6804;48.774;9.174;2022-11-20T02:53:06;1.80;;;1.60;;
13463;SDS011;6804;48.774;9.174;2022-11-20T02:55:37;4.40;;;1.93;;
13463;SDS011;6804;48.774;9.174;2022-11-20T02:58:08;2.63;;;1.80;;
13463;SDS011;6804;48.774;9.174;2022-11-20T03:00:38;3.10;;;1.93;;
13463;SDS011;6804;48.774;9.174;2022-11-20T03:03:09;3.37;;;2.20;;
13463;SDS011;6804;48.774;9.174;2022-11-20T03:05:38;2.10;;;1.77;;
13463;SDS011;6804;48.774;9.174;2022-11-20T03:08:05;2.87;;;2.20;;
13463;SDS011;6804;48.774;9.174;2022-11-20T03:10:36;3.47;;;2.00;;
13463;SDS011;6804;48.774;9.174;2022-11-20T03:13:10;2.43;;;2.23;;
13463;SDS011;6804;48.774;9.174;2022-11-20T03:15:38;2.40;;;1.93;;
13463;SDS011;6804;48.774;9.174;2022-11-20T03:18:06;2.30;;;1.87;;
13463;SDS011;6804;48.774;9.174;2022-11-20T03:20:36;4.27;;;2.13;;
13463;SDS011;6804;48.774;9.174;2022-11-20T03:23:03;3.17;;;2.30;;
13463;SDS011;6804;48.774;9.174;2022-11-20T03:25:31;2.50;;;2.30;;
13463;SDS011;6804;48.774;9.174;2022-11-20T03:27:58;3.37;;;2.33;;
13463;SDS011;6804;48.774;9.174;2022-11-20T03:30:27;4.03;;;2.60;;
13463;SDS011;6804;48.774;9.174;2022-11-20T03:32:55;3.33;;;2.30;;
13463;SDS011;6804;48.774;9.174;2022-11-20T03:35:22;3.97;;;2.60;;
13463;SDS011;6804;48.774;9.174;2022-11-20T03:37:49;2.40;;;2.20;;
13463;SDS011;6804;48.774;9.174;2022-11-20T03:40:17;2.63;;;2.10;;
13463;SDS011;6804;48.774;9.174;2022-11-20T03:42:44;2.60;;;2.33;;
13463;SDS011;6804;48.774;9.174;2022-11-20T03:45:12;2.77;;;2.33;;
13463;SDS011;6804;48.774;9.174;2022-11-20T03:47:43;3.40;;;2.50;;
13463;SDS011;6804;48.774;9.174;2022-11-20T03:50:11;3.17;;;2.50;;
13463;SDS011;6804;48.774;9.174;2022-11-20T03:52:42;3.10;;;2.70;;
13463;SDS011;6804;48.774;9.174;2022-11-20T03:55:09;2.60;;;2.40;;
13463;SDS011;6804;48.774;9.174;2022-11-20T03:57:37;3.30;;;2.30;;
13463;SDS011;6804;48.774;9.174;2022-11-20T04:02:45;3.17;;;2.53;;
13463;SDS011;6804;48.774;9.174;2022-11-20T04:05:13;3.43;;;2.57;;
13463;SDS011;6804;48.774;9.174;2022-11-20T04:07:40;3.87;;;2.67;;
13463;SDS011;6804;48.774;9.174;2022-11-20T04:10:10;2.70;;;2.50;;
13463;SDS011;6804;48.774;9.174;2022-11-20T04:12:37;3.13;;;2.73;;
13463;SDS011;6804;48.774;9.174;2022-11-20T04:15:05;3.83;;;2.40;;
13463;SDS011;6804;48.774;9.174;2022-11-20T04:17:33;2.80;;;2.60;;
13463;SDS011;6804;48.774;9.174;2022-11-20T04:20:04;3.03;;;2.80;;
13463;SDS011;6804;48.774;9.174;2022-11-20T04:22:32;2.50;;;2.30;;
13463;SDS011;6804;48.774;9.174;2022-11-20T04:25:00;3.10;;;2.43;;
13463;SDS011;6804;48.774;9.174;2022-11-20T04:27:30;3.27;;;2.63;;
13463;SDS011;6804;48.774;9.174;2022-11-20T04:29:58;3.53;;;2.33;;
13463;SDS011;6804;48.774;9.174;2022-11-20T04:32:26;2.83;;;2.50;;
13463;SDS011;6804;48.774;9.174;2022-11-20T04:34:53;3.10;;;2.60;;
13463;SDS011;6804;48.774;9.174;2022-11-20T04:37:24;3.23;;;2.90;;
13463;SDS011;6804;48.774;9.174;2022-11-20T04:39:51;3.57;;;2.83;;
13463;SDS011;6804;48.774;9.174;2022-11-20T04:42:19;2.80;;;2.50;;
13463;SDS011;6804;48.774;9.174;2022-11-20T04:44:57;3.00;;;2.37;;
13463;SDS011;6804;48.774;9.174;2022-11-20T04:47:24;3.73;;;2.80;;
13463;SDS011;6804;48.774;9.174;2022-11-20T04:49:53;2.93;;;2.63;;
13463;SDS011;6804;48.774;9.174;2022-11-20T04:52:22;3.60;;;3.10;;
13463;SDS011;6804;48.774;9.174;2022-11-20T04:54:49;3.00;;;2.70;;
13463;SDS011;6804;48.774;9.174;2022-11-20T04:57:20;2.63;;;2.30;;
13463;SDS011;6804;48.774;9.174;2022-11-20T04:59:49;2.90;;;2.40;;
13463;SDS011;6804;48.774;9.174;2022-11-20T05:02:17;5.60;;;2.73;;
13463;SDS011;6804;48.774;9.174;2022-11-20T05:04:44;2.60;;;2.37;;
13463;SDS011;6804;48.774;9.174;2022-11-20T05:07:14;4.27;;;2.60;;
13463;SDS011;6804;48.774;9.174;2022-11-20T05:09:46;3.97;;;2.23;;
13463;SDS011;6804;48.774;9.174;2022-11-20T05:12:15;3.10;;;2.33;;
13463;SDS011;6804;48.774;9.174;2022-11-20T05:14:45;2.43;;;2.20;;
13463;SDS011;6804;48.774;9.174;2022-11-20T05:17:12;3.37;;;2.30;;
13463;SDS011;6804;48.774;9.174;2022-11-20T05:19:40;2.63;;;2.30;;
13463;SDS011;6804;48.774;9.174;2022-11-20T05:22:16;3.90;;;2.23;;
13463;SDS011;6804;48.774;9.174;2022-11-20T05:24:43;2.43;;;2.23;;
13463;SDS011;6804;48.774;9.174;2022-11-20T05:27:12;2.30;;;2.10;;
13463;SDS011;6804;48.774;9.174;2022-11-20T05:29:45;3.87;;;2.50;;
13463;SDS011;6804;48.774;9.174;2022-11-20T05:32:14;3.03;;;2.53;;
13463;SDS011;6804;48.774;9.174;2022-11-20T05:34:41;4.53;;;2.47;;
13463;SDS011;6804;48.774;9.174;2022-11-20T05:37:11;2.37;;;2.10;;
13463;SDS011;6804;48.774;9.174;2022-11-20T05:39:41;2.53;;;2.30;;
13463;SDS011;6804;48.774;9.174;2022-11-20T05:42:13;4.30;;;2.73;;
13463;SDS011;6804;48.774;9.174;2022-11-20T05:45:02;2.40;;;2.20;;
13463;SDS011;6804;48.774;9.174;2022-11-20T05:47:34;2.97;;;2.50;;
13463;SDS011;6804;48.774;9.174;2022-11-20T05:50:06;3.03;;;2.30;;
13463;SDS011;6804;48.774;9.174;2022-11-20T05:52:34;2.40;;;2.20;;
13463;SDS011;6804;48.774;9.174;2022-11-20T05:55:06;2.33;;;2.10;;
13463;SDS011;6804;48.774;9.174;2022-11-20T05:57:34;2.63;;;2.03;;
13463;SDS011;6804;48.774;9.174;2022-11-20T06:00:07;2.67;;;2.30;;
13463;SDS011;6804;48.774;9.174;2022-11-20T06:02:35;2.87;;;2.20;;
13463;SDS011;6804;48.774;9.174;2022-11-20T06:05:05;2.33;;;1.70;;
13463;SDS011;6804;48.774;9.174;2022-11-20T06:07:40;2.80;;;2.27;;
13463;SDS011;6804;48.774;9.174;2022-11-20T06:10:11;3.13;;;2.20;;
13463;SDS011;6804;48.774;9.174;2022-11-20T06:12:41;3.50;;;2.10;;
13463;SDS011;6804;48.774;9.174;2022-11-20T06:15:14;2.53;;;2.20;;
13463;SDS011;6804;48.774;9.174;2022-11-20T06:17:51;2.10;;;1.77;;
13463;SDS011;6804;48.774;9.174;2022-11-20T06:20:18;3.37;;;2.20;;
13463;SDS011;6804;48.774;9.174;2022-11-20T06:22:46;2.30;;;2.10;;
13463;SDS011;6804;48.774;9.174;2022-11-20T06:25:15;2.27;;;1.90;;
13463;SDS011;6804;48.774;9.174;2022-11-20T06:27:43;4.67;;;2.90;;
13463;SDS011;6804;48.774;9.174;2022-11-20T06:30:12;2.53;;;1.97;;
13463;SDS011;6804;48.774;9.174;2022-11-20T06:32:40;2.50;;;2.00;;
13463;SDS011;6804;48.774;9.174;2022-11-20T06:35:08;2.80;;;1.87;;
13463;SDS011;6804;48.774;9.174;2022-11-20T06:37:38;2.83;;;2.20;;
13463;SDS011;6804;48.774;9.174;2022-11-20T06:40:09;3.97;;;2.00;;
13463;SDS011;6804;48.774;9.174;2022-11-20T06:42:38;1.67;;;1.57;;
13463;SDS011;6804;48.774;9.174;2022-11-20T06:45:08;3.87;;;2.10;;
13463;SDS011;6804;48.774;9.174;2022-11-20T06:47:38;2.20;;;1.80;;
13463;SDS011;6804;48.774;9.174;2022-11-20T06:50:09;2.03;;;1.60;;
13463;SDS011;6804;48.774;9.174;2022-11-20T06:52:39;2.17;;;1.87;;
13463;SDS011;6804;48.774;9.174;2022-11-20T06:55:09;2.00;;;1.80;;
13463;SDS011;6804;48.774;9.174;2022-11-20T06:57:40;2.63;;;1.40;;
13463;SDS011;6804;48.774;9.174;2022-11-20T07:00:07;2.10;;;1.60;;
13463;SDS011;6804;48.774;9.174;2022-11-20T07:02:39;2.73;;;1.73;;
13463;SDS011;6804;48.774;9.174;2022-11-20T07:05:08;2.30;;;1.90;;
13463;SDS011;6804;48.774;9.174;2022-11-20T07:07:38;4.07;;;2.17;;
13463;SDS011;6804;48.774;9.174;2022-11-20T07:10:09;2.67;;;2.17;;
13463;SDS011;6804;48.774;9.174;2022-11-20T07:12:36;1.67;;;1.53;;
13463;SDS011;6804;48.774;9.174;2022-11-20T07:15:08;2.63;;;2.00;;
13463;SDS011;6804;48.774;9.174;2022-11-20T07:17:38;3.23;;;2.00;;
13463;SDS011;6804;48.774;9.174;2022-11-20T07:20:08;1.70;;;1.60;;
13463;SDS011;6804;48.774;9.174;2022-11-20T07:22:36;1.97;;;1.77;;
13463;SDS011;6804;48.774;9.174;2022-11-20T07:25:03;3.50;;;1.93;;
13463;SDS011;6804;48.774;9.174;2022-11-20T07:27:31;1.90;;;1.73;;
13463;SDS011;6804;48.774;9.174;2022-11-20T07:30:00;3.13;;;1.70;;
13463;SDS011;6804;48.774;9.174;2022-11-20T07:32:28;1.90;;;1.60;;
13463;SDS011;6804;48.774;9.174;2022-11-20T07:34:55;1.80;;;1.70;;
13463;SDS011;6804;48.774;9.174;2022-11-20T07:37:25;3.30;;;1.87;;
13463;SDS011;6804;48.774;9.174;2022-11-20T07:39:52;2.30;;;1.73;;
13463;SDS011;6804;48.774;9.174;2022-11-20T07:42:19;2.03;;;1.70;;
13463;SDS011;6804;48.774;9.174;2022-11-20T07:44:46;1.70;;;1.60;;
13463;SDS011;6804;48.774;9.174;2022-11-20T07:47:17;1.70;;;1.53;;
13463;SDS011;6804;48.774;9.174;2022-11-20T07:49:47;3.63;;;1.50;;
13463;SDS011;6804;48.774;9.174;2022-11-20T07:52:17;1.90;;;1.40;;
13463;SDS011;6804;48.774;9.174;2022-11-20T07:54:45;2.43;;;1.70;;
13463;SDS011;6804;48.774;9.174;2022-11-20T07:57:15;3.20;;;1.80;;
13463;SDS011;6804;48.774;9.174;2022-11-20T07:59:47;1.60;;;1.50;;
13463;SDS011;6804;48.774;9.174;2022-11-20T08:02:19;2.70;;;1.90;;
13463;SDS011;6804;48.774;9.174;2022-11-20T08:04:49;2.30;;;1.57;;
13463;SDS011;6804;48.774;9.174;2022-11-20T08:07:16;1.90;;;1.47;;
13463;SDS011;6804;48.774;9.174;2022-11-20T08:09:44;2.77;;;1.80;;
13463;SDS011;6804;48.774;9.174;2022-11-20T08:12:15;3.07;;;1.60;;
13463;SDS011;6804;48.774;9.174;2022-11-20T08:15:01;1.83;;;1.60;;
13463;SDS011;6804;48.774;9.174;2022-11-20T08:17:30;2.40;;;1.93;;
13463;SDS011;6804;48.774;9.174;2022-11-20T08:20:00;1.60;;;1.50;;
13463;SDS011;6804;48.774;9.174;2022-11-20T08:22:27;1.70;;;1.40;;
13463;SDS011;6804;48.774;9.174;2022-11-20T08:24:55;1.60;;;1.50;;
13463;SDS011;6804;48.774;9.174;2022-11-20T08:27:26;1.37;;;1.20;;
13463;SDS011;6804;48.774;9.174;2022-11-20T08:29:53;1.50;;;1.40;;
13463;SDS011;6804;48.774;9.174;2022-11-20T08:32:20;3.43;;;1.60;;
13463;SDS011;6804;48.774;9.174;2022-11-20T08:34:51;2.03;;;1.53;;
13463;SDS011;6804;48.774;9.174;2022-11-20T08:37:21;2.57;;;1.40;;
13463;SDS011;6804;48.774;9.174;2022-11-20T08:39:49;1.53;;;1.30;;
13463;SDS011;6804;48.774;9.174;2022-11-20T08:42:21;1.80;;;1.60;;
13463;SDS011;6804;48.774;9.174;2022-11-20T08:44:51;1.30;;;1.20;;
13463;SDS011;6804;48.774;9.174;2022-11-20T08:47:19;1.87;;;1.50;;
13463;SDS011;6804;48.774;9.174;2022-11-20T08:49:46;1.10;;;1.00;;
13463;SDS011;6804;48.774;9.174;2022-11-20T08:52:15;1.87;;;1.10;;
13463;SDS011;6804;48.774;9.174;2022-11-20T08:54:42;1.60;;;1.47;;
13463;SDS011;6804;48.774;9.174;2022-11-20T08:57:11;1.57;;;1.30;;
13463;SDS011;6804;48.774;9.174;2022-11-20T08:59:38;1.47;;;1.10;;
13463;SDS011;6804;48.774;9.174;2022-11-20T09:02:11;1.60;;;1.20;;
13463;SDS011;6804;48.774;9.174;2022-11-20T09:04:38;1.33;;;1.10;;
13463;SDS011;6804;48.774;9.174;2022-11-20T09:07:06;1.70;;;1.30;;
13463;SDS011;6804;48.774;9.174;2022-11-20T09:09:38;1.40;;;1.30;;
13463;SDS011;6804;48.774;9.174;2022-11-20T09:12:07;1.60;;;1.27;;
13463;SDS011;6804;48.774;9.174;2022-11-20T09:14:35;1.63;;;1.17;;
13463;SDS011;6804;48.774;9.174;2022-11-20T09:17:02;1.07;;;1.00;;
13463;SDS011;6804;48.774;9.174;2022-11-20T09:19:32;1.33;;;1.23;;
13463;SDS011;6804;48.774;9.174;2022-11-20T09:21:59;1.30;;;1.20;;
13463;SDS011;6804;48.774;9.174;2022-11-20T09:24:33;1.70;;;1.27;;
13463;SDS011;6804;48.774;9.174;2022-11-20T09:27:05;1.37;;;1.00;;
13463;SDS011;6804;48.774;9.174;2022-11-20T09:29:32;1.23;;;1.13;;
13463;SDS011;6804;48.774;9.174;2022-11-20T09:32:01;1.37;;;1.10;;
13463;SDS011;6804;48.774;9.174;2022-11-20T09:34:29;1.27;;;1.10;;
13463;SDS011;6804;48.774;9.174;2022-11-20T09:36:57;2.07;;;0.90;;
13463;SDS011;6804;48.774;9.174;2022-11-20T09:39:24;1.07;;;0.90;;
13463;SDS011;6804;48.774;9.174;2022-11-20T09:41:58;2.30;;;0.90;;
13463;SDS011;6804;48.774;9.174;2022-11-20T09:44:42;1.20;;;1.10;;
13463;SDS011;6804;48.774;9.174;2022-11-20T09:47:26;1.13;;;0.90;;
13463;SDS011;6804;48.774;9.174;2022-11-20T09:50:14;1.37;;;0.80;;
13463;SDS011;6804;48.774;9.174;2022-11-20T09:52:55;1.10;;;0.70;;
13463;SDS011;6804;48.774;9.174;2022-11-20T09:55:32;1.20;;;0.90;;
13463;SDS011;6804;48.774;9.174;2022-11-20T09:58:03;1.47;;;1.27;;
13463;SDS011;6804;48.774;9.174;2022-11-20T10:00:34;1.20;;;0.80;;
13463;SDS011;6804;48.774;9.174;2022-11-20T10:03:03;1.00;;;0.83;;
13463;SDS011;6804;48.774;9.174;2022-11-20T10:05:39;1.47;;;1.10;;
13463;SDS011;6804;48.774;9.174;2022-11-20T10:08:15;1.93;;;0.90;;
13463;SDS011;6804;48.774;9.174;2022-11-20T10:10:52;0.73;;;0.73;;
13463;SDS011;6804;48.774;9.174;2022-11-20T10:13:34;1.07;;;0.97;;
13463;SDS011;6804;48.774;9.174;2022-11-20T10:16:15;1.90;;;1.00;;
13463;SDS011;6804;48.774;9.174;2022-11-20T10:18:59;1.10;;;1.00;;
13463;SDS011;6804;48.774;9.174;2022-11-20T10:21:41;1.27;;;0.90;;
13463;SDS011;6804;48.774;9.174;2022-11-20T10:24:35;1.37;;;0.90;;
13463;SDS011;6804;48.774;9.174;2022-11-20T10:30:09;1.00;;;0.90;;
13463;SDS011;6804;48.774;9.174;2022-11-20T10:32:41;1.30;;;1.10;;
13463;SDS011;6804;48.774;9.174;2022-11-20T10:35:17;2.13;;;1.00;;
13463;SDS011;6804;48.774;9.174;2022-11-20T10:37:53;1.00;;;0.90;;
13463;SDS011;6804;48.774;9.174;2022-11-20T10:40:28;0.90;;;0.70;;
13463;SDS011;6804;48.774;9.174;2022-11-20T10:43:02;1.23;;;0.93;;
13463;SDS011;6804;48.774;9.174;2022-11-20T10:45:43;1.17;;;0.80;;
13463;SDS011;6804;48.774;9.174;2022-11-20T10:48:16;1.20;;;0.90;;
13463;SDS011;6804;48.774;9.174;2022-11-20T10:51:00;1.20;;;0.90;;
13463;SDS011;6804;48.774;9.174;2022-11-20T10:53:48;1.73;;;0.90;;
13463;SDS011;6804;48.774;9.174;2022-11-20T10:56:27;1.53;;;1.10;;
13463;SDS011;6804;48.774;9.174;2022-11-20T10:59:03;1.10;;;1.00;;
13463;SDS011;6804;48.774;9.174;2022-11-20T11:01:44;2.47;;;1.20;;
13463;SDS011;6804;48.774;9.174;2022-11-20T11:04:16;1.90;;;1.43;;
13463;SDS011;6804;48.774;9.174;2022-11-20T11:06:53;2.33;;;1.43;;
13463;SDS011;6804;48.774;9.174;2022-11-20T11:09:27;2.27;;;1.77;;
13463;SDS011;6804;48.774;9.174;2022-11-20T11:11:59;2.50;;;1.80;;
13463;SDS011;6804;48.774;9.174;2022-11-20T11:14:29;1.17;;;1.03;;
13463;SDS011;6804;48.774;9.174;2022-11-20T11:17:00;1.33;;;0.90;;
13463;SDS011;6804;48.774;9.174;2022-11-20T11:19:30;1.90;;;1.40;;
13463;SDS011;6804;48.774;9.174;2022-11-20T11:21:57;2.83;;;1.10;;
13463;SDS011;6804;48.774;9.174;2022-11-20T11:24:24;1.10;;;1.00;;
13463;SDS011;6804;48.774;9.174;2022-11-20T11:26:55;1.17;;;1.07;;
13463;SDS011;6804;48.774;9.174;2022-11-20T11:29:24;1.40;;;1.10;;
13463;SDS011;6804;48.774;9.174;2022-11-20T11:34:58;2.70;;;1.37;;
13463;SDS011;6804;48.774;9.174;2022-11-20T11:37:26;1.53;;;1.20;;
13463;SDS011;6804;48.774;9.174;2022-11-20T11:40:00;1.47;;;1.33;;
13463;SDS011;6804;48.774;9.174;2022-11-20T11:42:27;1.30;;;1.07;;
13463;SDS011;6804;48.774;9.174;2022-11-20T11:44:56;1.40;;;1.10;;
13463;SDS011;6804;48.774;9.174;2022-11-20T11:47:37;1.40;;;1.30;;
13463;SDS011;6804;48.774;9.174;2022-11-20T11:50:19;2.13;;;1.63;;
13463;SDS011;6804;48.774;9.174;2022-11-20T11:53:00;3.43;;;1.43;;
13463;SDS011;6804;48.774;9.174;2022-11-20T11:55:37;1.97;;;1.00;;
13463;SDS011;6804;48.774;9.174;2022-11-20T11:58:13;2.67;;;1.30;;
13463;SDS011;6804;48.774;9.174;2022-11-20T12:00:57;1.80;;;1.30;;
13463;SDS011;6804;48.774;9.174;2022-11-20T12:03:33;1.87;;;1.10;;
13463;SDS011;6804;48.774;9.174;2022-11-20T12:06:05;1.00;;;0.90;;
13463;SDS011;6804;48.774;9.174;2022-11-20T12:08:38;3.03;;;1.40;;
13463;SDS011;6804;48.774;9.174;2022-11-20T12:11:11;1.63;;;1.23;;
13463;SDS011;6804;48.774;9.174;2022-11-20T12:13:44;1.70;;;1.10;;
13463;SDS011;6804;48.774;9.174;2022-11-20T12:16:17;2.97;;;1.10;;
13463;SDS011;6804;48.774;9.174;2022-11-20T12:18:48;2.50;;;1.20;;
13463;SDS011;6804;48.774;9.174;2022-11-20T12:21:20;2.90;;;1.20;;
13463;SDS011;6804;48.774;9.174;2022-11-20T12:26:56;2.43;;;0.90;;
13463;SDS011;6804;48.774;9.174;2022-11-20T12:29:32;1.90;;;0.97;;
13463;SDS011;6804;48.774;9.174;2022-11-20T12:35:13;2.53;;;1.10;;
13463;SDS011;6804;48.774;9.174;2022-11-20T12:37:59;1.63;;;1.23;;
13463;SDS011;6804;48.774;9.174;2022-11-20T12:40:39;1.30;;;1.10;;
13463;SDS011;6804;48.774;9.174;2022-11-20T12:43:21;1.87;;;1.00;;
13463;SDS011;6804;48.774;9.174;2022-11-20T12:46:14;1.93;;;1.20;;
13463;SDS011;6804;48.774;9.174;2022-11-20T12:48:52;3.20;;;1.20;;
13463;SDS011;6804;48.774;9.174;2022-11-20T12:54:34;1.57;;;1.00;;
13463;SDS011;6804;48.774;9.174;2022-11-20T12:57:28;1.20;;;1.00;;
13463;SDS011;6804;48.774;9.174;2022-11-20T13:00:07;2.60;;;1.00;;
13463;SDS011;6804;48.774;9.174;2022-11-20T13:02:44;1.40;;;0.80;;
13463;SDS011;6804;48.774;9.174;2022-11-20T13:05:48;1.80;;;1.10;;
13463;SDS011;6804;48.774;9.174;2022-11-20T13:08:29;2.57;;;1.27;;
13463;SDS011;6804;48.774;9.174;2022-11-20T13:11:03;2.70;;;1.10;;
13463;SDS011;6804;48.774;9.174;2022-11-20T13:13:41;1.43;;;1.13;;
13463;SDS011;6804;48.774;9.174;2022-11-20T13:16:17;1.97;;;1.20;;
13463;SDS011;6804;48.774;9.174;2022-11-20T13:18:49;2.27;;;1.30;;
13463;SDS011;6804;48.774;9.174;2022-11-20T13:21:20;1.13;;;0.97;;
13463;SDS011;6804;48.774;9.174;2022-11-20T13:23:51;1.87;;;0.90;;
13463;SDS011;6804;48.774;9.174;2022-11-20T13:26:19;1.30;;;1.10;;
13463;SDS011;6804;48.774;9.174;2022-11-20T13:28:47;2.23;;;1.20;;
13463;SDS011;6804;48.774;9.174;2022-11-20T13:31:29;1.93;;;1.10;;
13463;SDS011;6804;48.774;9.174;2022-11-20T13:33:59;4.77;;;1.20;;
13463;SDS011;6804;48.774;9.174;2022-11-20T13:36:31;1.90;;;1.50;;
13463;SDS011;6804;48.774;9.174;2022-11-20T13:39:01;1.43;;;0.80;;
13463;SDS011;6804;48.774;9.174;2022-11-20T13:41:32;1.20;;;0.90;;
13463;SDS011;6804;48.774;9.174;2022-11-20T13:44:11;2.23;;;0.90;;
13463;SDS011;6804;48.774;9.174;2022-11-20T13:46:47;1.00;;;0.80;;
13463;SDS011;6804;48.774;9.174;2022-11-20T13:49:20;1.53;;;0.90;;
13463;SDS011;6804;48.774;9.174;2022-11-20T13:51:54;1.90;;;1.00;;
13463;SDS011;6804;48.774;9.174;2022-11-20T13:54:43;1.30;;;0.70;;
13463;SDS011;6804;48.774;9.174;2022-11-20T14:00:33;1.13;;;0.80;;
13463;SDS011;6804;48.774;9.174;2022-11-20T14:03:16;0.93;;;0.73;;
13463;SDS011;6804;48.774;9.174;2022-11-20T14:05:49;1.17;;;0.87;;
13463;SDS011;6804;48.774;9.174;2022-11-20T14:08:26;1.20;;;1.07;;
13463;SDS011;6804;48.774;9.174;2022-11-20T14:11:04;1.40;;;0.80;;
13463;SDS011;6804;48.774;9.174;2022-11-20T14:13:32;1.20;;;1.10;;
13463;SDS011;6804;48.774;9.174;2022-11-20T14:15:59;1.40;;;1.20;;
13463;SDS011;6804;48.774;9.174;2022-11-20T14:18:26;3.73;;;1.33;;
13463;SDS011;6804;48.774;9.174;2022-11-20T14:21:03;3.00;;;1.00;;
13463;SDS011;6804;48.774;9.174;2022-11-20T14:23:30;2.27;;;1.20;;
13463;SDS011;6804;48.774;9.174;2022-11-20T14:25:58;1.67;;;1.20;;
13463;SDS011;6804;48.774;9.174;2022-11-20T14:28:30;2.13;;;1.00;;
13463;SDS011;6804;48.774;9.174;2022-11-20T14:30:58;1.53;;;1.30;;
13463;SDS011;6804;48.774;9.174;2022-11-20T14:33:31;2.63;;;1.20;;
13463;SDS011;6804;48.774;9.174;2022-11-20T14:35:59;2.07;;;1.13;;
13463;SDS011;6804;48.774;9.174;2022-11-20T14:38:27;3.53;;;2.00;;
13463;SDS011;6804;48.774;9.174;2022-11-20T14:41:05;3.10;;;1.40;;
13463;SDS011;6804;48.774;9.174;2022-11-20T14:43:35;2.77;;;2.00;;
13463;SDS011;6804;48.774;9.174;2022-11-20T14:46:04;3.63;;;1.73;;
13463;SDS011;6804;48.774;9.174;2022-11-20T14:48:37;3.20;;;2.40;;
13463;SDS011;6804;48.774;9.174;2022-11-20T14:51:09;3.53;;;1.73;;
13463;SDS011;6804;48.774;9.174;2022-11-20T14:53:38;1.10;;;1.00;;
13463;SDS011;6804;48.774;9.174;2022-11-20T14:56:14;3.03;;;1.20;;
13463;SDS011;6804;48.774;9.174;2022-11-20T14:58:56;1.53;;;1.00;;
13463;SDS011;6804;48.774;9.174;2022-11-20T15:01:29;3.27;;;1.33;;
13463;SDS011;6804;48.774;9.174;2022-11-20T15:04:01;2.70;;;1.73;;
13463;SDS011;6804;48.774;9.174;2022-11-20T15:06:33;2.30;;;1.37;;
13463;SDS011;6804;48.774;9.174;2022-11-20T15:09:01;2.80;;;1.13;;
13463;SDS011;6804;48.774;9.174;2022-11-20T15:11:30;1.23;;;1.10;;
13463;SDS011;6804;48.774;9.174;2022-11-20T15:14:05;1.70;;;1.57;;
13463;SDS011;6804;48.774;9.174;2022-11-20T15:16:33;2.37;;;1.47;;
13463;SDS011;6804;48.774;9.174;2022-11-20T15:19:00;2.13;;;1.20;;
13463;SDS011;6804;48.774;9.174;2022-11-20T15:21:36;2.43;;;1.67;;
13463;SDS011;6804;48.774;9.174;2022-11-20T15:24:07;2.77;;;1.50;;
13463;SDS011;6804;48.774;9.174;2022-11-20T15:26:35;2.40;;;1.43;;
13463;SDS011;6804;48.774;9.174;2022-11-20T15:29:07;2.37;;;1.40;;
13463;SDS011;6804;48.774;9.174;2022-11-20T15:31:37;3.13;;;1.60;;
13463;SDS011;6804;48.774;9.174;2022-11-20T15:34:08;3.20;;;1.70;;
13463;SDS011;6804;48.774;9.174;2022-11-20T15:36:38;3.87;;;1.60;;
13463;SDS011;6804;48.774;9.174;2022-11-20T15:39:08;3.47;;;1.90;;
13463;SDS011;6804;48.774;9.174;2022-11-20T15:41:37;4.77;;;2.57;;
13463;SDS011;6804;48.774;9.174;2022-11-20T15:44:06;9.17;;;4.67;;
13463;SDS011;6804;48.774;9.174;2022-11-20T15:46:35;3.73;;;2.23;;
13463;SDS011;6804;48.774;9.174;2022-11-20T15:49:08;2.90;;;2.10;;
13463;SDS011;6804;48.774;9.174;2022-11-20T15:51:41;3.57;;;1.87;;
13463;SDS011;6804;48.774;9.174;2022-11-20T15:54:15;3.00;;;1.73;;